Latest Weather Observations for Argyle

IDD60801

Issued at 10:31 pm CST Sunday 1 February 2015 (issued every 30 minutes, with the page automatically refreshed every 10 minutes)

About weather observations | Map of weather stations | Latest weather observations for NT | Other Formats
Station Details ID: 002064 Name: ARGYLE AERODROME Lat: -16.64 Lon: 128.45 Height: 164.0 m
Data from the previous 72 hours. | See also: Recent months at Argyle
Date/Time
CST
Temp
°C
App
Temp
°C
Dew
Point
Rel
Hum
%
Delta-T
°C
Wind Press
QNH
hPa
Press
MSL
hPa
Rain
since 9 am
mm
Dir
 
Spd
km/h
Gust
km/h
Spd
kts
Gust
kts
01/10:00pm 27.0 29.6 22.7 77 2.9 WNW 13 17 7 9 1010.6 - 1.2
01/09:30pm 27.2 29.1 23.4 80 2.6 WNW 19 24 10 13 1010.8 - 1.2
01/09:00pm 28.9 32.2 21.5 64 5.0 SSE 6 11 3 6 1010.6 - 1.2
01/08:30pm 27.5 30.0 21.7 70 3.9 NNE 11 20 6 11 1010.1 - 1.2
01/08:28pm 27.3 29.6 22.0 73 3.6 N 13 24 7 13 1010.1 - 1.2
01/08:00pm 27.5 28.1 21.1 68 4.3 W 19 28 10 15 1008.1 - 1.2
01/07:11pm 29.7 28.3 20.4 57 6.2 E 28 56 15 30 1008.2 - 0.0
01/07:00pm 33.2 33.8 18.6 42 9.6 SSW 13 20 7 11 1007.8 - 0.0
01/06:30pm 32.7 32.4 18.3 42 9.4 SSW 17 22 9 12 1007.0 - 0.0
01/06:00pm 32.6 34.0 19.5 46 8.7 S 11 17 6 9 1006.4 - 0.0
01/05:30pm 33.9 33.8 17.9 38 10.4 SSW 15 20 8 11 1006.3 - 0.0
01/05:00pm 35.3 34.9 18.8 37 10.9 SSW 19 28 10 15 1006.1 - 0.0
01/04:30pm 38.0 38.2 17.6 30 13.4 SSW 13 26 7 14 1006.3 1005.0 0.0
01/04:00pm 37.2 37.5 17.9 32 12.7 SSW 13 20 7 11 1006.4 - 0.0
01/03:30pm 36.7 37.7 19.4 36 11.6 SSW 13 19 7 10 1006.8 - 0.0
01/03:00pm 37.1 37.0 19.5 35 11.8 SSW 19 32 10 17 1007.1 - 0.0
01/02:30pm 37.2 38.6 18.7 33 12.3 SW 9 17 5 9 1007.7 - 0.0
01/02:00pm 36.8 38.1 18.5 34 12.1 S 9 24 5 13 1008.2 - 0.0
01/01:30pm 35.6 35.9 18.8 37 11.1 S 15 26 8 14 1008.6 1007.3 0.0
01/01:00pm 35.8 36.9 19.7 39 10.8 S 13 24 7 13 1009.1 - 0.0
01/12:30pm 35.5 37.1 20.0 40 10.4 SSW 11 32 6 17 1009.6 - 0.0
01/12:00pm 34.9 36.6 20.2 42 9.9 SSW 11 19 6 10 1010.0 - 0.0
01/11:30am 33.8 35.9 20.2 44 9.1 SSW 9 15 5 8 1010.3 - 0.0
01/11:00am 33.5 36.3 20.9 47 8.5 S 7 11 4 6 1010.6 - 0.0
01/10:30am 32.3 35.5 21.2 52 7.5 ESE 6 11 3 6 1010.8 1009.5 0.0
01/10:00am 31.8 34.7 20.6 51 7.5 SSE 6 13 3 7 1011.0 - 0.0
01/09:30am 31.5 34.3 20.4 51 7.4 SSW 6 9 3 5 1011.0 - 0.0
01/09:00am 30.4 32.9 20.3 54 6.7 S 7 11 4 6 1010.8 - 0.0
01/08:00am 28.5 33.1 21.7 66 4.6 CALM 0 4 0 2 1010.1 - 0.0
01/07:00am 27.4 31.4 21.3 69 4.1 S 2 7 1 4 1009.3 - 0.0
01/06:30am 27.3 30.5 21.3 69 4.0 S 6 9 3 5 1008.8 - 0.0
01/06:00am 27.2 29.9 21.4 70 3.9 S 9 13 5 7 1008.5 - 0.0
01/05:30am 27.6 30.3 20.7 66 4.6 S 7 13 4 7 1008.2 - 0.0
01/05:00am 26.6 29.8 22.3 77 2.9 S 9 11 5 6 1008.2 - 0.0
01/04:30am 27.3 30.8 21.8 72 3.7 S 6 9 3 5 1008.0 1006.7 0.0
01/04:00am 27.6 30.4 21.5 69 4.1 WSW 9 11 5 6 1007.8 - 0.0
01/03:30am 28.0 31.1 21.5 67 4.4 SW 7 9 4 5 1008.1 - 0.0
01/03:00am 28.1 30.3 21.2 66 4.6 SSW 11 15 6 8 1008.2 - 0.0
01/02:30am 27.6 30.6 22.0 71 3.8 SSW 9 13 5 7 1008.4 - 0.0
01/02:00am 28.1 30.9 21.6 68 4.4 S 9 15 5 8 1008.5 - 0.0
01/01:00am 28.2 29.9 21.7 68 4.4 SSW 15 22 8 12 1009.3 - 0.0
01/12:30am 27.9 30.6 22.2 71 3.9 S 11 22 6 12 1009.5 - 0.0
01/12:00am 28.0 31.4 22.7 73 3.6 SSE 9 13 5 7 1009.8 - 0.0
 
Date/Time
CST
Temp
°C
App
Temp
°C
Dew
Point
Rel
Hum
%
Delta-T
°C
Wind Press
QNH
hPa
Press
MSL
hPa
Rain
since 9 am
mm
Dir
 
Spd
km/h
Gust
km/h
Spd
kts
Gust
kts
31/11:30pm 29.3 32.9 22.1 65 4.9 W 6 9 3 5 1010.2 - 0.0
31/11:00pm 28.9 32.0 21.5 64 5.0 WNW 7 9 4 5 1010.0 - 0.0
31/10:30pm 29.0 31.6 20.4 59 5.7 NNW 7 11 4 6 1009.8 1008.5 0.0
31/10:00pm 29.5 31.9 20.1 57 6.2 SSW 7 11 4 6 1009.5 - 0.0
31/09:30pm 28.1 30.2 20.1 62 5.3 S 9 11 5 6 1009.2 - 0.0
31/09:00pm 28.5 30.4 20.5 62 5.3 S 11 19 6 10 1008.9 - 0.0
31/08:30pm 29.0 30.0 21.1 62 5.3 S 17 24 9 13 1008.4 - 0.0
31/08:00pm 32.8 35.4 20.1 47 8.5 E 6 7 3 4 1007.7 - 0.0
31/07:30pm 32.9 34.4 18.9 43 9.2 NE 9 11 5 6 1007.0 1005.7 0.0
31/07:00pm 33.7 34.9 19.0 42 9.7 N 11 17 6 9 1006.5 - 0.0
31/06:30pm 35.1 37.5 20.8 43 9.7 NE 9 24 5 13 1006.4 - 0.0
31/06:00pm 35.2 37.0 18.7 37 10.9 WNW 7 11 4 6 1006.1 - 0.0
31/05:30pm 35.7 38.1 18.8 37 11.2 SE 4 11 2 6 1005.8 - 0.0
31/05:00pm 35.0 36.8 18.3 37 11.0 ESE 6 11 3 6 1006.0 - 0.0
31/04:30pm 35.4 37.1 18.6 37 11.1 NNE 7 9 4 5 1006.2 1004.9 0.0
31/04:00pm 35.1 36.3 18.2 36 11.1 NNE 9 15 5 8 1006.6 - 0.0
31/03:30pm 35.0 36.2 18.2 37 11.0 S 9 17 5 9 1007.1 - 0.0
31/03:00pm 35.1 35.8 18.8 38 10.8 ESE 13 22 7 12 1007.4 - 0.0
31/02:30pm 34.6 36.2 19.2 40 10.2 S 9 17 5 9 1007.6 - 0.0
31/02:00pm 34.3 35.3 19.4 41 9.9 S 13 20 7 11 1008.0 - 0.0
31/01:30pm 33.6 35.2 20.0 44 9.1 SSE 11 22 6 12 1008.4 1007.1 0.0
31/01:00pm 33.7 35.1 20.3 45 9.0 SSE 13 20 7 11 1008.8 - 0.0
31/12:30pm 33.0 35.3 19.8 45 8.8 SSW 7 11 4 6 1009.3 - 0.0
31/12:00pm 32.8 34.7 19.7 46 8.7 WSW 9 17 5 9 1009.8 - 0.0
31/11:30am 31.8 33.1 20.1 50 7.8 WNW 13 20 7 11 1010.2 - 0.0
31/11:00am 30.9 33.7 20.8 55 6.8 NW 7 17 4 9 1010.4 - 0.0
31/10:30am 30.5 32.9 20.1 53 6.9 WSW 7 17 4 9 1010.6 1009.3 0.2
31/10:00am 29.2 33.0 21.7 64 5.1 WSW 4 7 2 4 1010.5 - 0.2
31/09:30am 28.6 33.0 22.8 71 4.0 S 4 9 2 5 1010.4 - 0.0
31/09:00am 28.3 33.2 22.4 70 4.0 CALM 0 0 0 0 1010.1 - 0.0
31/08:30am 27.4 31.0 22.4 74 3.4 W 7 9 4 5 1009.9 - 0.0
31/08:00am 27.1 31.9 22.2 74 3.3 CALM 0 0 0 0 1009.6 - 0.0
31/07:30am 26.3 31.7 23.2 83 2.1 CALM 0 0 0 0 1009.3 1008.0 0.0
31/07:00am 26.3 30.2 22.6 80 2.5 SW 6 7 3 4 1009.1 - 0.0
31/06:30am 26.4 30.3 22.6 79 2.6 WNW 6 7 3 4 1009.0 - 0.0
31/06:00am 26.1 31.3 22.9 82 2.2 CALM 0 0 0 0 1009.1 - 0.0
31/05:30am 26.2 31.3 22.7 81 2.4 CALM 0 0 0 0 1008.9 - 0.0
31/05:00am 26.1 30.4 22.6 81 2.4 SSW 4 7 2 4 1008.7 - 0.0
31/04:30am 25.9 31.1 22.8 83 2.1 CALM 0 0 0 0 1008.8 1007.5 0.0
31/04:00am 26.0 31.2 22.8 82 2.2 CALM 0 0 0 0 1008.8 - 0.0
31/03:30am 25.8 29.9 23.0 84 1.9 SSE 6 6 3 3 1009.0 - 0.0
31/03:00am 26.0 29.9 22.9 83 2.1 SSW 7 9 4 5 1008.8 - 0.0
31/02:30am 25.7 29.2 22.8 84 2.0 S 9 13 5 7 1008.8 - 0.0
31/02:00am 25.9 29.4 22.8 83 2.1 S 9 13 5 7 1009.1 - 0.0
31/01:30am 26.2 30.1 23.0 82 2.2 S 7 11 4 6 1009.3 1008.0 0.0
31/01:00am 26.6 29.7 22.8 79 2.6 SW 11 13 6 7 1009.5 - 0.0
31/12:30am 26.4 30.3 23.0 81 2.3 SSW 7 11 4 6 1010.1 - 0.0
31/12:00am 26.0 30.3 23.7 87 1.6 SSE 7 9 4 5 1010.8 - 0.0
 
Date/Time
CST
Temp
°C
App
Temp
°C
Dew
Point
Rel
Hum
%
Delta-T
°C
Wind Press
QNH
hPa
Press
MSL
hPa
Rain
since 9 am
mm
Dir
 
Spd
km/h
Gust
km/h
Spd
kts
Gust
kts
30/11:30pm 25.9 30.2 23.7 88 1.5 ESE 7 9 4 5 1010.7 - 0.0
30/11:00pm 26.3 30.4 23.2 83 2.1 SSE 7 11 4 6 1010.4 - 0.0
30/10:30pm 27.3 30.4 22.1 73 3.5 WNW 9 15 5 8 1010.1 1008.8 0.0
30/10:00pm 27.3 30.0 22.9 77 3.0 W 13 15 7 8 1009.7 - 0.0
30/09:42pm 27.2 30.0 23.0 78 2.9 W 13 19 7 10 1010.1 - 0.0
30/09:30pm 27.8 30.3 22.4 72 3.7 W 13 19 7 10 1010.1 - 0.0
30/09:18pm 28.5 29.5 21.0 64 5.0 W 17 20 9 11 1009.9 - 0.0
30/09:00pm 29.3 32.0 21.4 62 5.3 NNW 9 19 5 10 1009.7 - 0.0
30/08:30pm 29.5 32.0 21.0 60 5.7 NNW 9 11 5 6 1008.9 - 0.0
30/08:00pm 29.7 31.6 20.6 58 6.1 N 11 15 6 8 1008.3 - 0.0
30/07:30pm 30.1 33.0 20.7 57 6.3 N 6 11 3 6 1008.0 1006.7 0.0
30/07:00pm 30.5 32.3 20.3 54 6.8 N 11 15 6 8 1007.2 - 0.0
30/06:30pm 30.9 32.7 21.1 56 6.6 N 13 19 7 10 1006.8 - 0.0
30/06:00pm 33.4 35.1 18.6 41 9.7 SW 7 9 4 5 1005.8 - 0.0
30/05:30pm 33.5 35.7 18.4 40 9.9 SSW 4 9 2 5 1005.5 - 0.0
30/05:00pm 31.4 32.1 18.0 44 8.7 W 11 17 6 9 1005.8 - 0.0
30/04:30pm 29.7 28.8 18.3 50 7.4 WSW 20 28 11 15 1006.0 1004.6 0.0
30/04:00pm 30.6 29.2 19.7 52 7.2 WSW 26 33 14 18 1006.2 - 0.0
30/03:30pm 32.9 33.9 19.5 45 8.9 SE 13 17 7 9 1006.0 - 0.0
30/03:00pm 34.1 33.0 19.5 42 9.7 ESE 24 33 13 18 1005.8 - 0.0
30/02:30pm 33.9 35.7 19.5 42 9.6 S 9 15 5 8 1006.4 - 0.0
30/02:00pm 34.2 35.6 19.5 42 9.8 WNW 11 22 6 12 1006.8 - 0.0
30/01:30pm 34.3 35.9 20.0 43 9.6 NNW 11 17 6 9 1007.8 1006.5 0.0
30/01:00pm 33.3 34.5 20.0 45 8.9 WNW 13 19 7 10 1008.5 - 0.0
30/12:30pm 33.0 35.2 20.3 47 8.5 N 9 17 5 9 1009.1 - 0.0
30/12:00pm 32.4 34.7 20.7 50 7.9 N 9 17 5 9 1009.5 - 0.0
30/11:30am 32.6 34.6 20.0 47 8.4 WNW 9 17 5 9 1009.7 - 0.0
30/11:00am 32.0 33.8 19.6 47 8.2 NW 9 13 5 7 1009.8 - 0.0
30/10:30am 31.2 33.9 20.6 53 7.1 NNE 7 13 4 7 1009.8 1008.5 0.0
30/10:00am 30.7 33.7 20.9 56 6.6 W 6 9 3 5 1009.8 - 0.0
30/09:30am 29.7 33.6 21.9 63 5.3 SSW 4 7 2 4 1009.6 - 0.0
30/09:00am 29.2 32.8 22.0 65 4.9 S 6 7 3 4 1009.7 - 0.0
30/08:30am 28.1 33.0 22.4 71 3.9 CALM 0 0 0 0 1009.5 - 0.0
30/08:00am 27.0 30.6 22.0 74 3.4 W 6 9 3 5 1009.3 - 0.0
30/07:30am 26.4 30.5 22.3 78 2.8 SSW 4 9 2 5 1009.4 1008.1 0.0
30/07:00am 25.8 30.6 22.1 80 2.5 CALM 0 0 0 0 1008.6 - 0.0
30/06:30am 25.6 29.3 22.3 82 2.2 SE 6 7 3 4 1008.2 - 0.0
30/06:00am 25.6 30.5 22.3 82 2.2 CALM 0 4 0 2 1008.0 - 0.0
30/05:30am 25.9 30.9 22.5 81 2.3 CALM 0 0 0 0 1007.5 - 0.0
30/05:00am 26.7 31.3 22.4 77 2.9 WSW 2 6 1 3 1007.3 - 0.0
30/04:30am 26.6 30.3 22.5 78 2.8 W 7 9 4 5 1007.5 1006.2 0.0
30/04:00am 27.0 30.3 22.6 77 3.0 WSW 9 11 5 6 1007.7 - 0.0
30/03:30am 27.3 30.2 21.7 71 3.8 SW 9 11 5 6 1007.7 - 0.0
30/03:00am 27.2 29.7 21.1 69 4.1 WSW 9 11 5 6 1008.0 - 0.0
30/02:30am 27.5 29.4 19.7 62 5.1 SW 9 11 5 6 1008.1 - 0.0
30/02:00am 27.3 30.5 21.2 69 4.1 W 6 7 3 4 1008.3 - 0.0
30/01:30am 27.4 30.9 22.1 73 3.6 W 7 9 4 5 1008.6 1007.3 0.0
30/01:00am 28.3 32.0 21.5 66 4.6 WNW 4 7 2 4 1008.9 - 0.0
30/12:30am 28.4 32.3 21.9 68 4.4 N 4 9 2 5 1009.1 - 0.0

Other Formats:

Comma delimited format used in spreadsheet applications
http://www.bom.gov.au/fwo/IDD60801/IDD60801.94217.axf

JavaScript Object Notation format (JSON) in row-major order
http://www.bom.gov.au/fwo/IDD60801/IDD60801.94217.json